WXM80 ListenWXM80 Stop

You find our weather info also at:

UK Metoffice

WeatherCloud

Weather Underground

Northeastern Weather Network

AWEKAS

Citizen Weather Observer Program (CWOP)

HAMweather, WeatherForYou, PWS Weather


Weather Underground History page Text

Daily Summary for October 19, 2017 Units:  English    Metric   Both
« Previous Day
Next Day »
Daily Weekly Monthly Yearly Custom
  High: Low: Average:
Temperature: 74.1 °F 52.1 °F 61.3 °F
Dew Point: 56.1 °F 48.5 °F 51.7 °F
Humidity: 89 % 42 % 73 %
Wind Speed: 8.2 mph 0.0 mph 1.4 mph
Wind Gust: 13.8 mph - -
Wind:- - SW
Pressure: 30.27 in 30.06 in -
Precipitation: 0.00 in    
Historical Graphs
 
 
Tabular Data for October 19, 2017
Time Temperature Dew Point Pressure Wind Wind Speed Wind Gust Humidity Rainfall Rate (Hourly)
00:02 59.1 °F 53.3 °F 30.26 in SSW 2.2 mph 3.5 mph 81 % 0.00 in
00:07 59.1 °F 53.3 °F 30.26 in WSW 0.1 mph 1.2 mph 81 % 0.00 in
00:12 59.1 °F 52.9 °F 30.26 in WSW 1.0 mph 3.5 mph 80 % 0.00 in
00:17 59.1 °F 52.9 °F 30.26 in WSW 1.0 mph 6.9 mph 80 % 0.00 in
00:22 59.1 °F 52.9 °F 30.26 in WSW 1.5 mph 4.6 mph 80 % 0.00 in
00:27 59.1 °F 52.9 °F 30.26 in West 4.0 mph 5.8 mph 80 % 0.00 in
00:32 59.1 °F 52.6 °F 30.26 in WSW 2.5 mph 5.8 mph 79 % 0.00 in
00:37 59.1 °F 52.6 °F 30.26 in WNW 3.1 mph 5.8 mph 79 % 0.00 in
00:42 59.1 °F 52.6 °F 30.25 in West 2.9 mph 6.9 mph 79 % 0.00 in
00:47 59.1 °F 52.2 °F 30.26 in WSW 2.8 mph 5.8 mph 78 % 0.00 in
00:52 59.1 °F 52.2 °F 30.26 in SW 1.5 mph 8.0 mph 78 % 0.00 in
00:57 59.1 °F 52.2 °F 30.26 in SW 2.6 mph 4.0 mph 78 % 0.00 in
01:02 59.0 °F 52.1 °F 30.26 in SSW 1.3 mph 3.5 mph 78 % 0.00 in
01:08 58.9 °F 52.1 °F 30.26 in SSW 0.5 mph 2.3 mph 78 % 0.00 in
01:12 58.9 °F 52.1 °F 30.26 in WSW 1.9 mph 2.3 mph 78 % 0.00 in
01:17 58.7 °F 52.2 °F 30.26 in WSW 0.7 mph 1.2 mph 79 % 0.00 in
01:28 58.5 °F 52.0 °F 30.26 in SW 0.5 mph 1.2 mph 79 % 0.00 in
01:33 58.4 °F 51.9 °F 30.26 in Calm   3.5 mph 79 % 0.00 in
01:38 58.2 °F 51.7 °F 30.26 in SW 0.5 mph 2.3 mph 79 % 0.00 in
01:43 58.1 °F 51.6 °F 30.26 in SW 0.3 mph 2.3 mph 79 % 0.00 in
01:48 57.9 °F 51.4 °F 30.26 in SSW 1.6 mph 3.5 mph 79 % 0.00 in
01:53 57.8 °F 51.3 °F 30.25 in SSW 0.3 mph 1.2 mph 79 % 0.00 in
01:58 57.6 °F 51.1 °F 30.25 in WSW 1.5 mph 3.5 mph 79 % 0.00 in
02:03 57.4 °F 51.3 °F 30.25 in WSW 0.6 mph 1.2 mph 80 % 0.00 in
02:08 57.2 °F 51.1 °F 30.26 in WSW 0.3 mph 2.3 mph 80 % 0.00 in
02:13 57.1 °F 51.0 °F 30.25 in WSW 1.1 mph 2.3 mph 80 % 0.00 in
02:18 57.0 °F 50.9 °F 30.25 in WSW 0.4 mph 2.0 mph 80 % 0.00 in
02:23 56.9 °F 50.8 °F 30.25 in WSW 0.4 mph 2.3 mph 80 % 0.00 in
02:28 56.8 °F 50.7 °F 30.25 in Calm   1.2 mph 80 % 0.00 in
02:33 56.7 °F 50.6 °F 30.25 in SW 0.5 mph 2.3 mph 80 % 0.00 in
02:38 56.6 °F 50.5 °F 30.25 in SW 0.3 mph 2.3 mph 80 % 0.00 in
02:43 56.4 °F 50.3 °F 30.25 in SW 0.4 mph 2.3 mph 80 % 0.00 in
02:48 56.3 °F 50.2 °F 30.25 in Calm     80 % 0.00 in
02:53 56.2 °F 50.1 °F 30.25 in Calm     80 % 0.00 in
02:58 56.0 °F 49.9 °F 30.25 in SW 1.9 mph 3.5 mph 80 % 0.00 in
03:03 55.8 °F 49.7 °F 30.25 in West 0.6 mph 2.3 mph 80 % 0.00 in
03:08 55.7 °F 49.6 °F 30.25 in West 0.5 mph 2.3 mph 80 % 0.00 in
03:13 55.6 °F 49.9 °F 30.25 in West 0.1 mph 1.2 mph 81 % 0.00 in
03:18 55.5 °F 49.8 °F 30.24 in West 0.1 mph 1.2 mph 81 % 0.00 in
03:24 55.4 °F 49.7 °F 30.24 in Calm     81 % 0.00 in
03:29 55.3 °F 49.6 °F 30.24 in Calm     81 % 0.00 in
03:34 55.2 °F 49.5 °F 30.24 in Calm   1.2 mph 81 % 0.00 in
03:39 55.1 °F 49.4 °F 30.24 in Calm     81 % 0.00 in
03:44 54.9 °F 49.2 °F 30.24 in Calm     81 % 0.00 in
03:49 54.8 °F 49.1 °F 30.24 in Calm     81 % 0.00 in
03:54 54.7 °F 49.3 °F 30.24 in Calm     82 % 0.00 in
04:00 54.6 °F 49.2 °F 30.24 in WSW 0.3 mph 2.3 mph 82 % 0.00 in
04:05 54.4 °F 49.3 °F 30.24 in Calm   1.0 mph 83 % 0.00 in
04:10 54.3 °F 49.2 °F 30.24 in West 1.1 mph 2.3 mph 83 % 0.00 in
04:15 54.2 °F 49.1 °F 30.24 in Calm   1.2 mph 83 % 0.00 in
04:20 54.1 °F 49.4 °F 30.24 in SW 0.8 mph 3.5 mph 84 % 0.00 in
04:25 54.1 °F 49.7 °F 30.24 in West 0.3 mph 1.2 mph 85 % 0.00 in
04:30 54.1 °F 49.7 °F 30.24 in West 0.2 mph 3.5 mph 85 % 0.00 in
04:35 54.1 °F 50.0 °F 30.24 in Calm   1.2 mph 86 % 0.00 in
04:40 54.1 °F 50.0 °F 30.24 in Calm     86 % 0.00 in
04:45 54.0 °F 49.6 °F 30.24 in Calm     85 % 0.00 in
04:50 53.9 °F 49.5 °F 30.24 in Calm     85 % 0.00 in
04:55 53.9 °F 49.5 °F 30.24 in Calm     85 % 0.00 in
05:00 53.8 °F 49.4 °F 30.24 in Calm     85 % 0.00 in
05:05 53.7 °F 49.3 °F 30.24 in Calm     85 % 0.00 in
05:10 53.6 °F 48.9 °F 30.24 in Calm     84 % 0.00 in
05:15 53.5 °F 48.8 °F 30.24 in Calm     84 % 0.00 in
05:21 53.5 °F 48.8 °F 30.24 in Calm     84 % 0.00 in
05:26 53.3 °F 48.9 °F 30.24 in Calm     85 % 0.00 in
05:31 53.2 °F 48.8 °F 30.25 in Calm     85 % 0.00 in
05:36 53.2 °F 48.8 °F 30.25 in Calm   1.0 mph 85 % 0.00 in
05:41 53.0 °F 48.9 °F 30.25 in Calm     86 % 0.00 in
05:46 53.0 °F 48.9 °F 30.25 in Calm   1.0 mph 86 % 0.00 in
05:51 52.8 °F 48.7 °F 30.25 in Calm   1.0 mph 86 % 0.00 in
05:56 52.8 °F 48.7 °F 30.25 in Calm     86 % 0.00 in
06:01 52.7 °F 48.6 °F 30.25 in Calm     86 % 0.00 in
06:06 52.6 °F 48.5 °F 30.25 in Calm   1.2 mph 86 % 0.00 in
06:11 52.5 °F 48.7 °F 30.24 in Calm     87 % 0.00 in
06:16 52.4 °F 48.6 °F 30.25 in Calm     87 % 0.00 in
06:21 52.4 °F 48.6 °F 30.24 in Calm     87 % 0.00 in
06:26 52.3 °F 48.5 °F 30.24 in SW 1.3 mph 3.5 mph 87 % 0.00 in
06:31 52.3 °F 48.9 °F 30.24 in SW 0.2 mph 1.2 mph 88 % 0.00 in
06:36 52.3 °F 48.9 °F 30.24 in Calm   1.2 mph 88 % 0.00 in
06:41 52.3 °F 48.9 °F 30.24 in Calm     88 % 0.00 in
06:46 52.3 °F 48.9 °F 30.24 in Calm     88 % 0.00 in
06:51 52.2 °F 48.8 °F 30.24 in Calm     88 % 0.00 in
06:56 52.2 °F 48.8 °F 30.24 in Calm     88 % 0.00 in
07:06 52.2 °F 48.8 °F 30.24 in Calm     88 % 0.00 in
07:11 52.2 °F 48.8 °F 30.24 in Calm     88 % 0.00 in
07:16 52.1 °F 48.7 °F 30.24 in Calm   1.2 mph 88 % 0.00 in
07:21 52.2 °F 48.8 °F 30.26 in SW 0.2 mph 1.2 mph 88 % 0.00 in
07:26 52.2 °F 48.8 °F 30.24 in SW 0.1 mph 1.2 mph 88 % 0.00 in
07:31 52.3 °F 48.9 °F 30.27 in Calm   1.2 mph 88 % 0.00 in
07:37 52.3 °F 48.9 °F 30.24 in WSW 0.2 mph 1.2 mph 88 % 0.00 in
07:42 52.5 °F 49.4 °F 30.24 in Calm     89 % 0.00 in
07:47 52.6 °F 49.4 °F 30.24 in Calm   1.0 mph 89 % 0.00 in
07:52 52.8 °F 49.3 °F 30.24 in WSW 0.1 mph 1.2 mph 88 % 0.00 in
07:57 53.0 °F 49.5 °F 30.27 in Calm   1.2 mph 88 % 0.00 in
08:02 53.2 °F 49.7 °F 30.26 in WSW 0.1 mph 2.3 mph 88 % 0.00 in
08:07 53.4 °F 49.6 °F 30.27 in WSW 0.2 mph 1.2 mph 87 % 0.00 in
08:12 53.5 °F 49.7 °F 30.24 in WSW 0.3 mph 1.2 mph 87 % 0.00 in
08:17 53.7 °F 49.9 °F 30.24 in WSW 0.3 mph 2.3 mph 87 % 0.00 in
08:22 53.8 °F 50.0 °F 30.24 in WSW 0.3 mph 2.0 mph 87 % 0.00 in
08:27 53.9 °F 50.1 °F 30.27 in Calm     87 % 0.00 in
08:32 54.1 °F 50.0 °F 30.27 in Calm   1.2 mph 86 % 0.00 in
08:37 54.3 °F 50.2 °F 30.27 in WSW 2.2 mph 3.5 mph 86 % 0.00 in
08:42 54.6 °F 50.2 °F 30.27 in SSW 0.4 mph 3.5 mph 85 % 0.00 in
08:47 54.8 °F 50.4 °F 30.27 in SW 2.6 mph 4.0 mph 85 % 0.00 in
08:52 55.2 °F 50.1 °F 30.27 in WSW 1.7 mph 3.0 mph 83 % 0.00 in
08:57 55.7 °F 50.6 °F 30.27 in SSW 3.9 mph 5.8 mph 83 % 0.00 in
09:02 56.0 °F 50.6 °F 30.27 in SW 3.6 mph 5.8 mph 82 % 0.00 in
09:07 56.3 °F 50.9 °F 30.27 in SSW 2.7 mph 4.6 mph 82 % 0.00 in
09:12 56.7 °F 50.9 °F 30.27 in WSW 1.0 mph 2.0 mph 81 % 0.00 in
09:17 57.0 °F 51.2 °F 30.27 in WSW 0.3 mph 3.5 mph 81 % 0.00 in
09:22 57.3 °F 51.5 °F 30.27 in SW 2.7 mph 4.6 mph 81 % 0.00 in
09:27 57.6 °F 51.5 °F 30.27 in WSW 2.3 mph 3.5 mph 80 % 0.00 in
09:32 58.0 °F 51.5 °F 30.24 in SW 2.9 mph 3.5 mph 79 % 0.00 in
09:38 58.4 °F 51.2 °F 30.27 in SW 3.0 mph 4.6 mph 77 % 0.00 in
09:43 58.7 °F 51.5 °F 30.27 in SSW 2.5 mph 4.6 mph 77 % 0.00 in
09:48 59.1 °F 51.5 °F 30.25 in SW 2.3 mph 4.0 mph 76 % 0.00 in
09:53 59.5 °F 51.6 °F 30.25 in SSW 2.9 mph 7.0 mph 75 % 0.00 in
09:58 60.0 °F 51.7 °F 30.25 in WSW 2.5 mph 5.8 mph 74 % 0.00 in
10:03 60.7 °F 52.0 °F 30.25 in SW 3.9 mph 6.9 mph 73 % 0.00 in
10:08 61.4 °F 51.5 °F 30.24 in WSW 3.7 mph 6.9 mph 70 % 0.00 in
10:13 62.0 °F 51.7 °F 30.24 in SSW 1.1 mph 6.9 mph 69 % 0.00 in
10:18 62.4 °F 51.7 °F 30.23 in SW 2.5 mph 6.9 mph 68 % 0.00 in
10:23 62.8 °F 51.7 °F 30.24 in SSW 2.3 mph 5.0 mph 67 % 0.00 in
10:28 63.0 °F 52.3 °F 30.23 in SSW 1.1 mph 3.5 mph 68 % 0.00 in
10:33 63.3 °F 51.7 °F 30.23 in SW 0.8 mph 5.8 mph 66 % 0.00 in
10:38 63.5 °F 51.9 °F 30.23 in WSW 3.6 mph 8.1 mph 66 % 0.00 in
10:43 63.7 °F 52.1 °F 30.23 in SSW 3.3 mph 7.0 mph 66 % 0.00 in
10:48 63.9 °F 51.5 °F 30.23 in SW 1.3 mph 8.1 mph 64 % 0.00 in
10:53 64.1 °F 51.7 °F 30.22 in SW 1.5 mph 8.1 mph 64 % 0.00 in
10:58 64.4 °F 51.5 °F 30.23 in SSW 2.6 mph 4.6 mph 63 % 0.00 in
11:03 64.7 °F 50.9 °F 30.22 in West 4.4 mph 9.2 mph 61 % 0.00 in
11:08 65.0 °F 51.2 °F 30.22 in SSW 5.6 mph 7.0 mph 61 % 0.00 in
11:14 65.4 °F 51.6 °F 30.21 in SW 5.6 mph 9.2 mph 61 % 0.00 in
11:19 65.9 °F 52.1 °F 30.22 in WNW 3.8 mph 8.1 mph 61 % 0.00 in
11:24 66.7 °F 51.9 °F 30.22 in SSW 5.0 mph 11.5 mph 59 % 0.00 in
11:29 67.5 °F 51.2 °F 30.22 in WSW 4.6 mph 11.5 mph 56 % 0.00 in
11:39 69.0 °F 50.6 °F 30.21 in West 8.2 mph 13.8 mph 52 % 0.00 in
11:44 69.6 °F 52.2 °F 30.21 in South 2.5 mph 5.8 mph 54 % 0.00 in
11:49 70.1 °F 52.2 °F 30.21 in WSW 6.6 mph 11.0 mph 53 % 0.00 in
11:54 70.6 °F 52.1 °F 30.21 in WSW 6.8 mph 10.4 mph 52 % 0.00 in
11:59 71.2 °F 53.2 °F 30.20 in SSW 6.5 mph 10.4 mph 53 % 0.00 in
12:04 71.6 °F 52.0 °F 30.21 in WSW 6.1 mph 10.0 mph 50 % 0.00 in
12:06 71.7 °F 52.1 °F 30.20 in SSW 3.9 mph 8.1 mph 50 % 0.00 in
12:11 72.0 °F 51.8 °F 30.19 in WSW 4.7 mph 8.0 mph 49 % 0.00 in
12:17 72.2 °F 52.0 °F 30.19 in South 2.6 mph 9.2 mph 49 % 0.00 in
12:22 72.5 °F 51.1 °F 30.19 in SSW 4.1 mph 5.8 mph 47 % 0.00 in
12:27 72.6 °F 51.2 °F 30.19 in SW 5.4 mph 11.5 mph 47 % 0.00 in
12:32 72.5 °F 50.5 °F 30.19 in WSW 4.1 mph 11.5 mph 46 % 0.00 in
12:37 72.5 °F 51.7 °F 30.18 in SSW 4.7 mph 11.5 mph 48 % 0.00 in
12:42 72.5 °F 51.1 °F 30.18 in WSW 2.3 mph 5.8 mph 47 % 0.00 in
12:47 72.6 °F 51.8 °F 30.18 in South 4.4 mph 9.2 mph 48 % 0.00 in
12:52 72.8 °F 53.6 °F 30.18 in SSW 3.9 mph 10.4 mph 51 % 0.00 in
12:57 73.0 °F 51.0 °F 30.17 in South 1.4 mph 4.6 mph 46 % 0.00 in
13:02 73.1 °F 52.2 °F 30.16 in SE 3.7 mph 5.8 mph 48 % 0.00 in
13:07 73.4 °F 51.9 °F 30.16 in South 3.0 mph 6.0 mph 47 % 0.00 in
13:12 73.5 °F 50.2 °F 30.16 in South 5.7 mph 9.2 mph 44 % 0.00 in
13:17 73.6 °F 50.3 °F 30.15 in SSE 1.2 mph 5.0 mph 44 % 0.00 in
13:22 73.7 °F 52.2 °F 30.15 in WSW 1.4 mph 3.0 mph 47 % 0.00 in
13:27 73.9 °F 51.8 °F 30.15 in SSW 3.5 mph 9.2 mph 46 % 0.00 in
13:32 74.0 °F 51.3 °F 30.15 in SSW 1.2 mph 3.0 mph 45 % 0.00 in
13:37 74.0 °F 49.4 °F 30.15 in SE 2.5 mph 5.8 mph 42 % 0.00 in
13:42 74.0 °F 50.7 °F 30.15 in SSE 0.5 mph 2.3 mph 44 % 0.00 in
13:47 74.0 °F 52.5 °F 30.14 in SSW 2.1 mph 6.9 mph 47 % 0.00 in
13:52 74.1 °F 52.6 °F 30.14 in SW 1.7 mph 5.8 mph 47 % 0.00 in
13:57 74.0 °F 51.9 °F 30.14 in SSW 1.5 mph 3.5 mph 46 % 0.00 in
14:02 74.0 °F 51.9 °F 30.17 in SSE 3.6 mph 6.9 mph 46 % 0.00 in
14:07 74.0 °F 51.3 °F 30.14 in SW 1.7 mph 9.0 mph 45 % 0.00 in
14:12 74.0 °F 50.7 °F 30.13 in SW 1.6 mph 3.5 mph 44 % 0.00 in
14:18 74.0 °F 51.9 °F 30.13 in WSW 2.5 mph 11.5 mph 46 % 0.00 in
14:23 73.8 °F 51.1 °F 30.12 in SW 5.4 mph 11.5 mph 45 % 0.00 in
14:28 73.8 °F 51.1 °F 30.12 in SW 2.4 mph 6.0 mph 45 % 0.00 in
14:33 73.7 °F 49.8 °F 30.12 in SW 4.8 mph 7.0 mph 43 % 0.00 in
14:38 73.6 °F 50.3 °F 30.14 in SW 2.4 mph 6.9 mph 44 % 0.00 in
14:43 73.4 °F 50.8 °F 30.11 in WSW 0.7 mph 2.3 mph 45 % 0.00 in
14:48 73.4 °F 51.4 °F 30.11 in WSW 4.2 mph 6.9 mph 46 % 0.00 in
14:53 73.3 °F 51.3 °F 30.10 in SSE 1.5 mph 6.9 mph 46 % 0.00 in
14:58 73.1 °F 51.7 °F 30.11 in SSW 1.6 mph 4.6 mph 47 % 0.00 in
15:03 72.9 °F 52.1 °F 30.11 in East 0.2 mph 3.5 mph 48 % 0.00 in
15:14 72.5 °F 51.7 °F 30.11 in WSW 2.9 mph 5.8 mph 48 % 0.00 in
15:19 72.2 °F 52.5 °F 30.11 in SSW 3.0 mph 5.0 mph 50 % 0.00 in
15:24 71.8 °F 51.6 °F 30.11 in SSW 1.8 mph 6.9 mph 49 % 0.00 in
15:29 71.5 °F 52.4 °F 30.11 in SSW 2.7 mph 3.5 mph 51 % 0.00 in
15:34 71.1 °F 52.0 °F 30.10 in WSW 1.2 mph 3.5 mph 51 % 0.00 in
15:39 70.8 °F 51.8 °F 30.11 in SSW 3.4 mph 4.6 mph 51 % 0.00 in
15:44 70.4 °F 51.4 °F 30.10 in SE 3.0 mph 5.8 mph 51 % 0.00 in
15:49 69.9 °F 52.0 °F 30.10 in SSW 4.2 mph 10.4 mph 53 % 0.00 in
15:54 69.6 °F 51.2 °F 30.09 in South 1.2 mph 3.5 mph 52 % 0.00 in
15:59 69.3 °F 51.9 °F 30.09 in SSW 0.1 mph 1.2 mph 54 % 0.00 in
16:04 69.0 °F 51.7 °F 30.09 in SW 4.2 mph 6.9 mph 54 % 0.00 in
16:09 68.8 °F 52.0 °F 30.09 in SSW 5.3 mph 7.0 mph 55 % 0.00 in
16:14 68.6 °F 51.8 °F 30.09 in SSW 2.0 mph 5.0 mph 55 % 0.00 in
16:19 68.3 °F 51.5 °F 30.08 in South 0.5 mph 2.3 mph 55 % 0.00 in
16:24 68.1 °F 51.8 °F 30.08 in SSW 1.6 mph 5.8 mph 56 % 0.00 in
16:29 68.0 °F 52.2 °F 30.08 in SSW 2.6 mph 3.5 mph 57 % 0.00 in
16:34 67.8 °F 52.5 °F 30.08 in SW 0.8 mph 3.0 mph 58 % 0.00 in
16:39 67.7 °F 52.9 °F 30.07 in WSW 0.2 mph 2.0 mph 59 % 0.00 in
16:45 67.5 °F 53.1 °F 30.07 in SSW 3.1 mph 4.0 mph 60 % 0.00 in
16:50 67.3 °F 53.4 °F 30.07 in SSW 3.1 mph 6.9 mph 61 % 0.00 in
16:55 67.1 °F 53.6 °F 30.07 in SSW 0.8 mph 4.6 mph 62 % 0.00 in
16:59 67.0 °F 54.0 °F 30.10 in SW 2.4 mph 3.5 mph 63 % 0.00 in
17:04 66.8 °F 53.8 °F 30.10 in SW 1.2 mph 3.0 mph 63 % 0.00 in
17:09 66.6 °F 54.0 °F 30.10 in SSE 0.2 mph 1.0 mph 64 % 0.00 in
17:14 66.4 °F 54.3 °F 30.10 in SSW 1.1 mph 2.3 mph 65 % 0.00 in
17:19 66.2 °F 54.1 °F 30.10 in SSW 0.7 mph 4.6 mph 65 % 0.00 in
17:24 66.0 °F 54.3 °F 30.10 in SSE 1.4 mph 3.5 mph 66 % 0.00 in
17:29 65.8 °F 54.1 °F 30.10 in ENE 0.5 mph 5.8 mph 66 % 0.00 in
17:34 65.7 °F 54.0 °F 30.10 in SSW 0.7 mph 2.3 mph 66 % 0.00 in
17:40 65.4 °F 54.2 °F 30.07 in South 0.1 mph 3.5 mph 67 % 0.00 in
17:45 65.2 °F 54.0 °F 30.07 in SSE 0.6 mph 3.5 mph 67 % 0.00 in
17:50 65.0 °F 54.2 °F 30.07 in South 0.7 mph 2.3 mph 68 % 0.00 in
17:55 64.9 °F 54.1 °F 30.07 in South 0.2 mph 2.3 mph 68 % 0.00 in
18:00 64.7 °F 54.3 °F 30.07 in South 0.4 mph 2.3 mph 69 % 0.00 in
18:05 64.4 °F 54.4 °F 30.06 in SSW 0.1 mph 2.3 mph 70 % 0.00 in
18:10 64.2 °F 54.6 °F 30.06 in SSW 0.7 mph 2.3 mph 71 % 0.00 in
18:15 63.9 °F 54.7 °F 30.06 in SSW 0.5 mph 2.3 mph 72 % 0.00 in
18:20 63.7 °F 54.5 °F 30.06 in SSW 0.2 mph 1.2 mph 72 % 0.00 in
18:25 63.5 °F 54.7 °F 30.06 in SSW 1.6 mph 3.5 mph 73 % 0.00 in
18:30 63.2 °F 55.1 °F 30.06 in SW 0.3 mph 2.3 mph 75 % 0.00 in
18:35 62.9 °F 55.2 °F 30.06 in WSW 0.8 mph 3.5 mph 76 % 0.00 in
18:40 62.7 °F 55.0 °F 30.10 in WSW 1.4 mph 3.5 mph 76 % 0.00 in
18:45 62.5 °F 55.5 °F 30.07 in SW 0.8 mph 3.5 mph 78 % 0.00 in
18:50 62.3 °F 55.4 °F 30.09 in SW 0.4 mph 2.0 mph 78 % 0.00 in
18:55 62.1 °F 55.5 °F 30.10 in SW 0.3 mph 1.2 mph 79 % 0.00 in
19:00 62.0 °F 55.4 °F 30.09 in SW 2.2 mph 5.0 mph 79 % 0.00 in
19:05 61.8 °F 55.6 °F 30.09 in SW 0.9 mph 3.5 mph 80 % 0.00 in
19:11 61.7 °F 55.8 °F 30.10 in SSW 0.3 mph 3.5 mph 81 % 0.00 in
19:16 61.6 °F 55.7 °F 30.09 in SW 1.0 mph 3.0 mph 81 % 0.00 in
19:21 61.5 °F 55.6 °F 30.09 in Calm   3.0 mph 81 % 0.00 in
19:26 61.4 °F 55.9 °F 30.09 in Calm   3.0 mph 82 % 0.00 in
19:31 61.3 °F 56.1 °F 30.09 in SW 1.0 mph 3.0 mph 83 % 0.00 in
19:36 61.2 °F 56.0 °F 30.09 in Calm   4.0 mph 83 % 0.00 in
19:41 61.1 °F 55.9 °F 30.09 in Calm   1.0 mph 83 % 0.00 in
19:46 61.1 °F 55.9 °F 30.09 in Calm   4.0 mph 83 % 0.00 in
19:51 61.0 °F 55.8 °F 30.09 in Calm   3.0 mph 83 % 0.00 in
19:56 61.0 °F 56.1 °F 30.09 in Calm   2.0 mph 84 % 0.00 in
20:01 60.9 °F 56.0 °F 30.09 in Calm   1.2 mph 84 % 0.00 in
20:06 60.8 °F 55.9 °F 30.10 in WSW 0.1 mph 1.2 mph 84 % 0.00 in
20:11 60.7 °F 55.8 °F 30.09 in Calm   1.2 mph 84 % 0.00 in
20:16 60.6 °F 55.7 °F 30.09 in WSW 0.1 mph 1.2 mph 84 % 0.00 in
20:21 60.5 °F 55.6 °F 30.09 in Calm     84 % 0.00 in
20:26 60.4 °F 55.5 °F 30.09 in WSW 0.6 mph 2.0 mph 84 % 0.00 in
20:31 60.3 °F 55.8 °F 30.09 in WSW 0.2 mph 1.2 mph 85 % 0.00 in
20:36 60.2 °F 55.7 °F 30.09 in WSW 0.1 mph 1.2 mph 85 % 0.00 in
20:41 60.2 °F 55.7 °F 30.09 in WSW 0.1 mph 1.2 mph 85 % 0.00 in
20:46 60.1 °F 55.2 °F 30.09 in WSW 0.6 mph 2.3 mph 84 % 0.00 in
20:51 60.0 °F 55.2 °F 30.09 in WSW 0.2 mph 2.0 mph 84 % 0.00 in
20:56 60.0 °F 55.2 °F 30.07 in WSW 0.4 mph 2.3 mph 84 % 0.00 in
21:01 59.9 °F 55.1 °F 30.09 in WSW 1.3 mph 3.5 mph 84 % 0.00 in
21:06 59.8 °F 55.0 °F 30.07 in WSW 0.2 mph 2.3 mph 84 % 0.00 in
21:11 59.6 °F 54.4 °F 30.08 in WSW 1.8 mph 3.0 mph 83 % 0.00 in
21:16 59.5 °F 54.3 °F 30.08 in SW 1.2 mph 3.5 mph 83 % 0.00 in
21:21 59.4 °F 53.9 °F 30.08 in SW 1.0 mph 3.5 mph 82 % 0.00 in
21:26 59.4 °F 53.9 °F 30.08 in SW 1.4 mph 3.5 mph 82 % 0.00 in
21:31 59.3 °F 53.8 °F 30.08 in SW 0.8 mph 2.3 mph 82 % 0.00 in
21:36 59.3 °F 53.5 °F 30.08 in WSW 1.3 mph 4.0 mph 81 % 0.00 in
21:41 59.2 °F 53.4 °F 30.08 in SW 0.2 mph 1.2 mph 81 % 0.00 in
21:46 59.2 °F 53.4 °F 30.08 in SSW 1.4 mph 3.5 mph 81 % 0.00 in
21:51 59.1 °F 52.9 °F 30.08 in Calm   2.3 mph 80 % 0.00 in
21:57 59.1 °F 52.6 °F 30.08 in WSW 0.7 mph 3.5 mph 79 % 0.00 in
22:02 59.0 °F 52.5 °F 30.08 in SW 0.2 mph 1.2 mph 79 % 0.00 in
22:07 59.0 °F 52.1 °F 30.08 in SW 0.4 mph 2.3 mph 78 % 0.00 in
22:12 59.0 °F 52.1 °F 30.08 in SSW 0.3 mph 2.3 mph 78 % 0.00 in
22:17 58.9 °F 52.1 °F 30.08 in Calm   1.2 mph 78 % 0.00 in
22:22 58.9 °F 51.7 °F 30.08 in SW 0.9 mph 4.6 mph 77 % 0.00 in
22:27 58.9 °F 51.7 °F 30.07 in SSW 1.3 mph 3.5 mph 77 % 0.00 in
22:32 58.9 °F 51.3 °F 30.09 in SSW 0.7 mph 4.6 mph 76 % 0.00 in
22:37 58.9 °F 51.3 °F 30.08 in West 1.5 mph 4.0 mph 76 % 0.00 in
22:42 58.9 °F 51.3 °F 30.10 in SSW 0.7 mph 4.6 mph 76 % 0.00 in
22:47 58.9 °F 51.3 °F 30.08 in SW 2.2 mph 3.5 mph 76 % 0.00 in
22:52 59.0 °F 51.4 °F 30.10 in SW 1.0 mph 3.5 mph 76 % 0.00 in
22:57 59.0 °F 51.1 °F 30.10 in SW 1.3 mph 3.0 mph 75 % 0.00 in
23:02 59.0 °F 51.1 °F 30.09 in SW 3.4 mph 6.9 mph 75 % 0.00 in
23:07 59.1 °F 51.2 °F 30.07 in SW 3.2 mph 4.0 mph 75 % 0.00 in
23:13 59.3 °F 51.4 °F 30.07 in SW 1.3 mph 3.0 mph 75 % 0.00 in
23:18 59.3 °F 51.4 °F 30.06 in Calm   2.3 mph 75 % 0.00 in
23:23 59.3 °F 51.0 °F 30.07 in WSW 2.8 mph 5.8 mph 74 % 0.00 in
23:26 59.3 °F 51.0 °F 30.06 in WSW 2.4 mph 3.5 mph 74 % 0.00 in
23:29 59.4 °F 51.1 °F 30.06 in SW 2.3 mph 8.1 mph 74 % 0.00 in
23:34 59.4 °F 51.1 °F 30.06 in SSW 2.5 mph 3.5 mph 74 % 0.00 in
23:39 59.4 °F 51.1 °F 30.06 in SSW 2.4 mph 4.6 mph 74 % 0.00 in
23:44 59.4 °F 51.1 °F 30.06 in WSW 0.5 mph 2.3 mph 74 % 0.00 in
23:49 59.4 °F 51.1 °F 30.06 in SSW 2.4 mph 3.5 mph 74 % 0.00 in
23:54 59.4 °F 51.1 °F 30.06 in Calm   1.2 mph 74 % 0.00 in
Crab Meadow Weather
Compliments of Weather Underground - 3 mb

Script developed by  Jim McMurry - jmcmurry@mwt.net Adapted for the template by  Wim van der Kuil - Leuven-Template.eu

Recycling: Americans throw away 25,000,000,000 Styrofoam coffee cups every year.